Time;durP1;ratioP1;P1;durP2;ratioP2;P2;SDS_P1;SDS_P2;PMS_P1;PMS_P2;Temp;Humidity;BMP_temperature;BMP_pressure;BME280_temperature;BME280_humidity;BME280_pressure;Samples;Min_cycle;Max_cycle;Signal;HPM_P1;HPM_P2
2022/08/21 00:00:28;;;;;;;1.58;0.80;;;25.40;54.20;;;;;;5078820;28;20029;-63
2022/08/21 00:03:01;;;;;;;1.00;0.70;;;25.40;54.70;;;;;;5081510;28;20024;-63
2022/08/21 00:05:27;;;;;;;0.90;0.63;;;25.40;54.70;;;;;;5081283;28;20501;-63
2022/08/21 00:07:54;;;;;;;0.90;0.60;;;25.40;54.20;;;;;;5079921;28;20025;-63
2022/08/21 00:10:20;;;;;;;0.70;0.70;;;25.40;54.20;;;;;;5082923;28;20028;-63
2022/08/21 00:12:47;;;;;;;0.95;0.75;;;25.40;54.20;;;;;;5083974;28;20044;-63
2022/08/21 00:15:19;;;;;;;0.90;0.70;;;25.40;54.20;;;;;;5084297;28;20035;-63
2022/08/21 00:17:44;;;;;;;1.20;0.70;;;25.40;54.20;;;;;;5083142;28;20387;-63
2022/08/21 00:20:12;;;;;;;0.68;0.68;;;25.40;54.10;;;;;;5084783;28;20112;-63
2022/08/21 00:22:39;;;;;;;1.25;0.50;;;25.40;54.10;;;;;;5083986;28;20337;-63
2022/08/21 00:25:06;;;;;;;0.63;0.60;;;25.40;54.10;;;;;;5083901;28;20119;-63
2022/08/21 00:27:33;;;;;;;0.88;0.80;;;25.40;54.10;;;;;;5083235;28;20024;-63
2022/08/21 00:29:59;;;;;;;0.70;0.70;;;25.40;54.00;;;;;;5084760;28;20111;-63
2022/08/21 00:32:26;;;;;;;0.82;0.80;;;25.40;54.10;;;;;;5083246;28;20068;-63
2022/08/21 00:34:52;;;;;;;0.93;0.65;;;25.40;54.20;;;;;;5083829;28;20031;-63
2022/08/21 00:37:18;;;;;;;0.77;0.50;;;25.40;54.20;;;;;;5083042;28;20104;-63
2022/08/21 00:39:44;;;;;;;0.98;0.68;;;25.40;54.30;;;;;;5084368;28;20024;-63
2022/08/21 00:42:14;;;;;;;0.75;0.60;;;25.40;54.40;;;;;;5083324;28;20042;-63
2022/08/21 00:44:44;;;;;;;1.15;0.80;;;25.40;54.40;;;;;;5083662;28;20028;-63
2022/08/21 00:47:11;;;;;;;0.98;0.70;;;25.40;54.40;;;;;;5097940;28;20230;-63
2022/08/21 00:49:37;;;;;;;1.08;0.60;;;25.40;54.40;;;;;;5083542;28;20089;-63
2022/08/21 00:52:06;;;;;;;0.70;0.70;;;25.40;54.40;;;;;;5083258;28;20103;-63
2022/08/21 00:54:33;;;;;;;0.70;0.60;;;25.40;54.40;;;;;;5084201;28;20052;-63
2022/08/21 00:57:08;;;;;;;1.02;0.70;;;25.40;54.40;;;;;;5082638;28;20467;-63
2022/08/21 00:59:38;;;;;;;0.93;0.65;;;25.40;54.40;;;;;;5082812;28;20029;-63
2022/08/21 01:02:05;;;;;;;0.65;0.50;;;25.40;54.40;;;;;;5083925;28;20043;-63
2022/08/21 01:04:31;;;;;;;1.08;0.70;;;25.40;54.40;;;;;;5082686;28;20510;-63
2022/08/21 01:06:56;;;;;;;1.20;0.60;;;25.40;54.40;;;;;;5083503;28;20016;-63
2022/08/21 01:09:22;;;;;;;0.68;0.68;;;25.40;54.40;;;;;;5082969;28;20043;-63
2022/08/21 01:11:48;;;;;;;0.60;0.60;;;25.40;54.40;;;;;;5080673;28;20476;-63
2022/08/21 01:14:15;;;;;;;1.73;0.60;;;25.40;54.40;;;;;;5083882;28;20185;-63
2022/08/21 01:16:44;;;;;;;1.38;0.70;;;25.40;54.40;;;;;;5082689;28;20496;-63
2022/08/21 01:19:10;;;;;;;1.23;0.63;;;25.40;54.40;;;;;;5096590;28;20107;-63
2022/08/21 01:21:36;;;;;;;0.57;0.57;;;25.40;54.40;;;;;;5082909;28;20035;-63
2022/08/21 01:24:02;;;;;;;0.60;0.60;;;25.40;54.40;;;;;;5082487;28;20028;-63
2022/08/21 01:26:31;;;;;;;1.20;0.70;;;25.40;54.40;;;;;;5082939;28;20035;-63
2022/08/21 01:29:04;;;;;;;1.35;0.90;;;25.40;54.40;;;;;;5082184;28;20497;-63
2022/08/21 01:31:32;;;;;;;0.60;0.60;;;25.40;54.40;;;;;;5081327;28;20138;-63
2022/08/21 01:33:58;;;;;;;0.60;0.60;;;25.40;54.30;;;;;;5083789;28;20360;-63
2022/08/21 01:36:25;;;;;;;1.10;0.60;;;25.40;54.30;;;;;;5082054;28;20091;-63
2022/08/21 01:38:51;;;;;;;0.85;0.65;;;25.40;54.30;;;;;;5081692;28;20471;-63
2022/08/21 01:41:17;;;;;;;0.80;0.65;;;25.40;54.40;;;;;;5083530;28;20028;-63
2022/08/21 01:43:44;;;;;;;1.48;0.70;;;25.40;54.30;;;;;;5082674;28;20028;-63
2022/08/21 01:46:10;;;;;;;0.70;0.70;;;25.40;54.30;;;;;;5080489;28;20027;-63
2022/08/21 01:48:36;;;;;;;0.45;0.45;;;25.30;54.20;;;;;;5082652;28;20028;-63
2022/08/21 01:51:03;;;;;;;0.77;0.60;;;25.40;54.30;;;;;;5081689;28;20028;-63
2022/08/21 01:53:29;;;;;;;0.60;0.60;;;25.40;54.30;;;;;;5082940;28;20383;-63
2022/08/21 01:55:54;;;;;;;0.77;0.70;;;25.40;54.30;;;;;;5081685;28;20103;-63
2022/08/21 01:58:20;;;;;;;0.95;0.60;;;25.40;54.20;;;;;;5082577;28;20029;-63
2022/08/21 02:00:45;;;;;;;0.50;0.50;;;25.40;54.20;;;;;;5081656;28;20032;-63
2022/08/21 02:03:11;;;;;;;0.90;0.70;;;25.40;54.30;;;;;;5080321;28;20036;-63
2022/08/21 02:05:37;;;;;;;1.00;0.60;;;25.30;54.20;;;;;;5081667;28;20029;-63
2022/08/21 02:08:05;;;;;;;0.65;0.50;;;25.30;54.20;;;;;;5083141;28;20084;-63
2022/08/21 02:10:32;;;;;;;0.95;0.60;;;25.30;54.20;;;;;;5080871;28;20495;-63
2022/08/21 02:13:00;;;;;;;0.60;0.60;;;25.40;54.20;;;;;;5082112;28;20048;-63
2022/08/21 02:15:27;;;;;;;0.60;0.50;;;25.30;54.20;;;;;;5081455;28;20066;-63
2022/08/21 02:17:59;;;;;;;0.47;0.45;;;25.30;54.20;;;;;;5081413;28;20531;-63
2022/08/21 02:20:30;;;;;;;1.13;0.70;;;25.30;54.10;;;;;;5081635;28;20044;-63
2022/08/21 02:22:56;;;;;;;0.60;0.60;;;25.30;54.10;;;;;;5079848;28;20051;-63
2022/08/21 02:25:24;;;;;;;0.70;0.50;;;25.30;54.10;;;;;;5082548;28;20464;-63
2022/08/21 02:27:49;;;;;;;0.88;0.70;;;25.30;54.40;;;;;;5081921;28;20511;-63
2022/08/21 02:30:21;;;;;;;0.85;0.65;;;25.30;54.00;;;;;;5081223;28;20118;-63
2022/08/21 02:32:47;;;;;;;0.80;0.70;;;25.30;54.10;;;;;;5080085;28;20484;-63
2022/08/21 02:35:13;;;;;;;0.73;0.60;;;25.30;54.60;;;;;;5081606;28;20418;-63
2022/08/21 02:37:52;;;;;;;0.60;0.60;;;25.30;54.00;;;;;;5080909;28;20103;-63
2022/08/21 02:40:20;;;;;;;1.02;0.50;;;25.30;54.00;;;;;;5080132;28;20025;-63
2022/08/21 02:42:46;;;;;;;0.70;0.50;;;25.30;54.00;;;;;;5082959;28;20032;-63
2022/08/21 02:45:14;;;;;;;0.60;0.57;;;25.30;54.00;;;;;;5079856;28;20447;-63
2022/08/21 02:47:46;;;;;;;0.70;0.60;;;25.30;54.00;;;;;;5082638;28;20383;-63
2022/08/21 02:50:12;;;;;;;0.57;0.57;;;25.30;54.50;;;;;;5080498;28;20047;-63
2022/08/21 02:52:37;;;;;;;0.60;0.50;;;25.30;54.00;;;;;;5082390;28;20487;-63
2022/08/21 02:55:04;;;;;;;0.55;0.50;;;25.30;54.00;;;;;;5080668;28;20028;-63
2022/08/21 02:57:32;;;;;;;0.55;0.50;;;25.30;54.00;;;;;;5080646;28;20034;-63
2022/08/21 02:59:57;;;;;;;0.65;0.55;;;25.30;54.00;;;;;;5082121;28;20123;-63
2022/08/21 03:02:23;;;;;;;0.60;0.52;;;25.30;54.00;;;;;;5080464;28;20036;-63
2022/08/21 03:04:49;;;;;;;0.80;0.70;;;25.30;54.00;;;;;;5080813;28;20483;-63
2022/08/21 03:07:15;;;;;;;1.10;0.63;;;25.30;54.00;;;;;;5081357;28;20067;-63
2022/08/21 03:09:40;;;;;;;0.60;0.52;;;25.30;54.00;;;;;;5081235;28;20024;-63
2022/08/21 03:12:06;;;;;;;1.15;0.57;;;25.30;54.00;;;;;;5080196;28;20117;-63
2022/08/21 03:14:32;;;;;;;0.80;0.60;;;25.30;54.00;;;;;;5081285;28;20368;-63
2022/08/21 03:16:57;;;;;;;0.82;0.57;;;25.30;54.00;;;;;;5081540;28;20081;-63
2022/08/21 03:19:23;;;;;;;0.52;0.52;;;25.30;53.90;;;;;;5080098;28;20097;-63
2022/08/21 03:21:49;;;;;;;0.50;0.50;;;25.30;54.00;;;;;;5080915;28;20464;-63
2022/08/21 03:24:14;;;;;;;0.45;0.45;;;25.30;54.00;;;;;;5082038;28;20028;-63
2022/08/21 03:26:40;;;;;;;0.57;0.55;;;25.30;53.90;;;;;;5079852;28;20044;-63
2022/08/21 03:29:07;;;;;;;0.52;0.52;;;25.30;53.90;;;;;;5080384;28;20406;-63
2022/08/21 03:31:33;;;;;;;0.57;0.57;;;25.20;53.80;;;;;;5077647;28;20484;-63
2022/08/21 03:33:58;;;;;;;0.77;0.60;;;25.30;53.90;;;;;;5079911;28;20035;-63
2022/08/21 03:36:25;;;;;;;0.50;0.50;;;25.30;54.40;;;;;;5080377;28;20029;-63
2022/08/21 03:38:50;;;;;;;0.50;0.50;;;25.30;53.90;;;;;;5080796;28;20475;-63
2022/08/21 03:41:16;;;;;;;0.60;0.60;;;25.20;53.80;;;;;;5080874;28;20020;-63
2022/08/21 03:43:42;;;;;;;0.52;0.40;;;25.20;53.80;;;;;;5081655;28;20024;-63
2022/08/21 03:46:07;;;;;;;0.82;0.57;;;25.20;53.80;;;;;;5085182;28;20043;-63
2022/08/21 03:48:35;;;;;;;0.57;0.50;;;25.30;53.90;;;;;;5083524;28;20028;-63
2022/08/21 03:51:00;;;;;;;0.68;0.50;;;25.20;53.80;;;;;;5085465;28;20036;-63
2022/08/21 03:53:26;;;;;;;1.02;0.73;;;25.30;53.90;;;;;;5083854;28;20048;-63
2022/08/21 03:55:52;;;;;;;0.52;0.50;;;25.20;53.80;;;;;;5085947;28;20093;-63
2022/08/21 03:58:21;;;;;;;0.88;0.60;;;25.20;53.80;;;;;;5083395;28;20101;-63
2022/08/21 04:00:50;;;;;;;0.60;0.60;;;25.20;53.80;;;;;;5083897;28;20024;-63
2022/08/21 04:03:16;;;;;;;0.60;0.50;;;25.20;53.80;;;;;;5084151;28;20047;-63
2022/08/21 04:05:42;;;;;;;0.57;0.52;;;25.20;54.30;;;;;;5083539;28;20119;-63
2022/08/21 04:08:08;;;;;;;0.60;0.57;;;25.20;53.80;;;;;;5084767;28;20032;-63
2022/08/21 04:10:36;;;;;;;0.60;0.60;;;25.20;54.30;;;;;;5084066;28;20066;-63
2022/08/21 04:13:04;;;;;;;0.55;0.50;;;25.20;53.80;;;;;;5084198;28;20082;-63
2022/08/21 04:15:30;;;;;;;0.63;0.60;;;25.20;54.30;;;;;;5082390;28;20043;-63
2022/08/21 04:17:55;;;;;;;0.50;0.50;;;25.20;53.80;;;;;;5084050;28;20024;-63
2022/08/21 04:20:22;;;;;;;0.63;0.55;;;25.20;53.80;;;;;;5083478;28;20028;-63
2022/08/21 04:22:48;;;;;;;0.50;0.50;;;25.20;53.80;;;;;;5084560;28;20107;-63
2022/08/21 04:25:16;;;;;;;1.10;1.00;;;25.20;53.80;;;;;;5082710;28;20147;-63
2022/08/21 04:27:42;;;;;;;0.50;0.50;;;25.20;53.80;;;;;;5085443;28;20107;-63
2022/08/21 04:30:09;;;;;;;0.57;0.57;;;25.20;53.70;;;;;;5081417;28;20028;-63
2022/08/21 04:32:36;;;;;;;0.60;0.50;;;25.20;53.70;;;;;;5080274;28;20021;-63
2022/08/21 04:35:08;;;;;;;0.60;0.50;;;25.20;53.70;;;;;;5084749;28;20467;-63
2022/08/21 04:37:34;;;;;;;0.65;0.60;;;25.20;53.70;;;;;;5082591;28;20039;-63
2022/08/21 04:40:00;;;;;;;0.50;0.50;;;25.20;53.70;;;;;;5084502;28;20036;-63
2022/08/21 04:42:27;;;;;;;0.70;0.60;;;25.20;53.70;;;;;;5083619;28;20050;-63
2022/08/21 04:44:53;;;;;;;0.57;0.50;;;25.20;53.70;;;;;;5083642;28;20043;-63
2022/08/21 04:47:19;;;;;;;0.75;0.70;;;25.20;53.70;;;;;;5082963;28;20032;-63
2022/08/21 04:49:45;;;;;;;1.35;0.75;;;25.20;53.70;;;;;;5084361;28;20505;-63
2022/08/21 04:52:12;;;;;;;0.52;0.52;;;25.20;53.70;;;;;;5082711;28;20038;-63
2022/08/21 04:54:38;;;;;;;0.50;0.50;;;25.20;53.70;;;;;;5083867;28;20464;-63
2022/08/21 04:57:07;;;;;;;0.70;0.60;;;25.20;53.70;;;;;;5082084;28;20066;-63
2022/08/21 04:59:37;;;;;;;1.08;0.60;;;25.20;53.70;;;;;;5084373;28;20028;-63
2022/08/21 05:02:05;;;;;;;0.40;0.40;;;25.20;53.70;;;;;;5083212;28;20119;-63
2022/08/21 05:04:34;;;;;;;0.75;0.57;;;25.20;53.70;;;;;;5082397;28;20028;-63
2022/08/21 05:07:06;;;;;;;0.60;0.60;;;25.20;53.70;;;;;;5083528;28;20024;-63
2022/08/21 05:09:33;;;;;;;0.55;0.50;;;25.10;53.60;;;;;;5082606;28;20432;-63
2022/08/21 05:12:00;;;;;;;0.65;0.50;;;25.10;53.60;;;;;;5082923;28;20111;-63
2022/08/21 05:14:27;;;;;;;0.60;0.60;;;25.10;53.60;;;;;;5083704;28;20104;-63
2022/08/21 05:16:52;;;;;;;0.50;0.50;;;25.10;53.60;;;;;;5082116;28;20024;-63
2022/08/21 05:19:18;;;;;;;0.52;0.52;;;25.10;53.60;;;;;;5083415;28;20487;-63
2022/08/21 05:21:45;;;;;;;0.50;0.50;;;25.10;53.50;;;;;;5082099;28;20109;-63
2022/08/21 05:24:11;;;;;;;0.85;0.63;;;25.10;53.60;;;;;;5083709;28;20028;-63
2022/08/21 05:26:38;;;;;;;0.45;0.45;;;25.10;53.50;;;;;;5082044;28;20472;-63
2022/08/21 05:29:04;;;;;;;0.50;0.50;;;25.10;53.50;;;;;;5081713;28;20060;-63
2022/08/21 05:31:30;;;;;;;0.70;0.57;;;25.10;53.50;;;;;;5082849;28;20109;-63
2022/08/21 05:33:56;;;;;;;0.75;0.60;;;25.10;53.50;;;;;;5082769;28;20063;-63
2022/08/21 05:36:22;;;;;;;0.50;0.50;;;25.20;53.60;;;;;;5082698;28;20025;-63
2022/08/21 05:38:48;;;;;;;0.73;0.60;;;25.10;53.50;;;;;;5082910;28;20024;-63
2022/08/21 05:41:13;;;;;;;0.60;0.60;;;25.10;53.50;;;;;;5083397;28;20050;-63
2022/08/21 05:43:39;;;;;;;0.60;0.60;;;25.10;53.50;;;;;;5081160;28;20073;-63
2022/08/21 05:46:06;;;;;;;0.60;0.55;;;25.10;53.50;;;;;;5083216;28;20028;-63
2022/08/21 05:48:32;;;;;;;0.50;0.50;;;25.10;53.50;;;;;;5083072;28;20032;-63
2022/08/21 05:51:03;;;;;;;0.60;0.60;;;25.10;53.50;;;;;;5080967;28;20013;-63
2022/08/21 05:53:29;;;;;;;0.60;0.60;;;25.10;53.50;;;;;;5082618;28;20529;-63
2022/08/21 05:55:54;;;;;;;0.47;0.47;;;25.10;53.50;;;;;;5081429;28;20032;-63
2022/08/21 05:58:22;;;;;;;0.50;0.50;;;25.10;53.50;;;;;;5080104;28;20036;-63
2022/08/21 06:00:50;;;;;;;0.52;0.52;;;25.10;53.50;;;;;;5081294;28;20391;-63
2022/08/21 06:03:22;;;;;;;0.55;0.55;;;25.10;53.50;;;;;;5082334;28;20024;-63
2022/08/21 06:05:48;;;;;;;0.55;0.55;;;25.10;53.40;;;;;;5082628;28;20017;-63
2022/08/21 06:08:15;;;;;;;0.60;0.60;;;25.10;53.50;;;;;;5079481;28;20399;-63
2022/08/21 06:10:41;;;;;;;0.70;0.60;;;25.10;53.40;;;;;;5083404;28;20085;-63
2022/08/21 06:13:07;;;;;;;0.60;0.60;;;25.10;53.40;;;;;;5082965;28;20135;-63
2022/08/21 06:15:33;;;;;;;0.70;0.70;;;25.10;53.40;;;;;;5080395;28;20020;-63
2022/08/21 06:17:59;;;;;;;0.85;0.60;;;25.10;53.40;;;;;;5081088;28;20532;-63
2022/08/21 06:20:25;;;;;;;0.60;0.60;;;25.10;53.40;;;;;;5080122;28;20040;-63
2022/08/21 06:22:51;;;;;;;0.60;0.60;;;25.10;53.40;;;;;;5080529;28;20028;-63
2022/08/21 06:25:17;;;;;;;0.57;0.57;;;25.10;53.40;;;;;;5081713;28;20036;-63
2022/08/21 06:27:42;;;;;;;0.60;0.57;;;25.10;53.40;;;;;;5079763;28;20020;-63
2022/08/21 06:30:08;;;;;;;0.60;0.60;;;25.10;53.40;;;;;;5081005;28;20030;-63
2022/08/21 06:32:34;;;;;;;0.50;0.50;;;25.10;53.40;;;;;;5081027;28;20028;-63
2022/08/21 06:35:00;;;;;;;0.60;0.60;;;25.10;53.40;;;;;;5080744;28;20111;-63
2022/08/21 06:37:26;;;;;;;0.57;0.57;;;25.10;53.40;;;;;;5080452;28;20095;-63
2022/08/21 06:39:52;;;;;;;0.90;0.60;;;25.10;53.40;;;;;;5080245;28;20488;-63
2022/08/21 06:42:17;;;;;;;0.70;0.68;;;25.10;53.40;;;;;;5079314;28;20104;-63
2022/08/21 06:44:44;;;;;;;0.60;0.60;;;25.10;53.40;;;;;;5082165;28;20477;-63
2022/08/21 06:47:09;;;;;;;0.60;0.60;;;25.10;53.40;;;;;;5078491;28;20403;-63
2022/08/21 06:49:35;;;;;;;0.70;0.70;;;25.10;53.40;;;;;;5081836;28;20020;-63
2022/08/21 06:52:01;;;;;;;0.57;0.55;;;25.00;53.30;;;;;;5080888;28;20068;-63
2022/08/21 06:54:27;;;;;;;0.60;0.60;;;25.10;53.30;;;;;;5080134;28;20028;-63
2022/08/21 06:56:52;;;;;;;0.88;0.70;;;25.00;53.30;;;;;;5080978;28;20078;-63
2022/08/21 06:59:18;;;;;;;0.60;0.60;;;25.10;53.30;;;;;;5078432;28;20028;-63
2022/08/21 07:01:44;;;;;;;0.80;0.60;;;25.00;53.30;;;;;;5078986;28;20036;-63
2022/08/21 07:04:11;;;;;;;0.90;0.73;;;25.00;53.80;;;;;;5078359;28;20028;-63
2022/08/21 07:06:36;;;;;;;0.65;0.60;;;25.00;53.30;;;;;;5080240;28;20376;-63
2022/08/21 07:09:03;;;;;;;0.70;0.70;;;25.00;53.30;;;;;;5080864;28;20024;-63
2022/08/21 07:11:29;;;;;;;0.57;0.57;;;25.00;53.30;;;;;;5081091;28;20443;-63
2022/08/21 07:13:56;;;;;;;0.60;0.60;;;25.00;53.30;;;;;;5081776;28;20044;-63
2022/08/21 07:16:23;;;;;;;0.77;0.65;;;25.00;53.20;;;;;;5080764;28;20426;-63
2022/08/21 07:18:49;;;;;;;0.70;0.70;;;25.00;53.20;;;;;;5080480;28;20035;-63
2022/08/21 07:21:15;;;;;;;0.90;0.68;;;25.00;53.20;;;;;;5081069;28;20525;-63
2022/08/21 07:23:44;;;;;;;0.68;0.65;;;25.00;53.30;;;;;;5079322;28;20027;-63
2022/08/21 07:26:11;;;;;;;0.70;0.70;;;25.00;53.20;;;;;;5080056;28;20035;-63
2022/08/21 07:28:37;;;;;;;0.60;0.60;;;25.00;53.20;;;;;;5080721;28;20480;-63
2022/08/21 07:31:04;;;;;;;0.73;0.73;;;25.00;53.20;;;;;;5081153;28;20023;-63
2022/08/21 07:33:32;;;;;;;0.57;0.57;;;25.00;53.20;;;;;;5080552;28;20549;-63
2022/08/21 07:35:57;;;;;;;0.85;0.70;;;25.00;53.20;;;;;;5078940;28;20028;-63
2022/08/21 07:38:24;;;;;;;0.65;0.60;;;25.00;53.20;;;;;;5080048;28;20600;-63
2022/08/21 07:40:52;;;;;;;0.70;0.70;;;25.00;53.20;;;;;;5079835;28;20025;-63
2022/08/21 07:43:18;;;;;;;0.70;0.70;;;25.00;53.20;;;;;;5080668;28;20551;-63
2022/08/21 07:45:44;;;;;;;2.38;1.15;;;25.00;53.20;;;;;;5081458;28;20024;-63
2022/08/21 07:48:10;;;;;;;0.55;0.55;;;25.00;53.20;;;;;;5079772;28;20024;-63
2022/08/21 07:50:36;;;;;;;0.68;0.63;;;25.00;53.20;;;;;;5080546;28;20048;-63
2022/08/21 07:53:02;;;;;;;1.10;0.80;;;25.00;53.20;;;;;;5078744;28;20447;-63
2022/08/21 07:55:28;;;;;;;0.88;0.70;;;25.00;53.20;;;;;;5081298;28;20048;-63
2022/08/21 07:57:54;;;;;;;0.70;0.70;;;25.00;53.20;;;;;;5080126;28;20029;-63
2022/08/21 08:00:22;;;;;;;2.40;0.70;;;25.00;53.20;;;;;;5079870;28;20035;-63
2022/08/21 08:02:50;;;;;;;0.90;0.80;;;25.00;53.20;;;;;;5080931;28;20444;-63
2022/08/21 08:05:18;;;;;;;2.80;1.70;;;25.00;53.10;;;;;;5079371;28;20024;-63
2022/08/21 08:07:44;;;;;;;4.50;3.22;;;24.90;52.10;;;;;;5081689;28;20067;-64
2022/08/21 08:10:10;;;;;;;4.03;2.75;;;24.80;51.80;;;;;;5080751;28;20073;-63
2022/08/21 08:12:38;;;;;;;3.22;2.30;;;24.70;51.90;;;;;;5079909;28;20457;-63
2022/08/21 08:15:06;;;;;;;2.78;2.22;;;24.70;52.30;;;;;;5081036;28;20031;-63
2022/08/21 08:17:32;;;;;;;3.88;2.90;;;24.70;52.50;;;;;;5079340;28;20059;-63
2022/08/21 08:20:00;;;;;;;3.15;2.38;;;24.60;52.30;;;;;;5081749;28;20052;-63
2022/08/21 08:22:26;;;;;;;3.03;2.50;;;24.60;52.80;;;;;;5080068;28;20036;-63
2022/08/21 08:24:52;;;;;;;2.85;2.25;;;24.60;52.80;;;;;;5080370;28;20513;-63
2022/08/21 08:27:17;;;;;;;3.42;2.20;;;24.50;52.40;;;;;;5080107;28;20036;-63
2022/08/21 08:29:44;;;;;;;2.40;1.67;;;24.50;52.60;;;;;;5078849;28;20054;-63
2022/08/21 08:32:10;;;;;;;3.30;1.63;;;24.50;52.60;;;;;;5080657;28;20476;-63
2022/08/21 08:34:37;;;;;;;2.13;1.52;;;24.60;52.60;;;;;;5083072;28;20027;-63
2022/08/21 08:37:03;;;;;;;2.20;1.40;;;24.50;52.60;;;;;;5083215;28;20024;-63
2022/08/21 08:39:29;;;;;;;2.13;1.50;;;24.60;52.60;;;;;;5083137;28;20028;-63
2022/08/21 08:42:18;;;;;;;2.60;1.50;;;24.60;52.60;;;;;;5083314;28;20038;-63
2022/08/21 08:44:46;;;;;;;2.28;1.50;;;24.60;52.60;;;;;;5070209;28;20094;-63
2022/08/21 08:47:16;;;;;;;2.58;1.40;;;24.70;52.60;;;;;;5081229;28;20029;-63
2022/08/21 08:50:07;;;;;;;1.92;1.48;;;24.70;52.60;;;;;;5083780;28;20043;-63
2022/08/21 08:52:42;;;;;;;1.90;1.40;;;24.70;52.50;;;;;;5081266;28;20026;-63
2022/08/21 08:55:18;;;;;;;2.53;1.83;;;24.70;52.50;;;;;;5083822;28;20027;-63
2022/08/21 08:57:46;;;;;;;2.13;1.40;;;24.70;52.60;;;;;;5084148;28;20024;-63
2022/08/21 09:00:14;;;;;;;2.00;1.35;;;24.70;52.60;;;;;;5081852;28;20033;-63
2022/08/21 09:02:43;;;;;;;2.00;1.40;;;24.70;52.60;;;;;;5084214;28;20384;-63
2022/08/21 09:05:49;;;;;;;1.65;1.23;;;24.70;52.60;;;;;;5079334;28;20041;-63
2022/08/21 09:08:38;;;;;;;1.88;1.30;;;24.70;52.60;;;;;;5082829;28;20550;-63
2022/08/21 09:11:15;;;;;;;1.88;1.33;;;24.70;52.60;;;;;;5083346;28;20028;-63
2022/08/21 09:14:12;;;;;;;1.65;1.25;;;24.70;52.60;;;;;;5082182;28;20522;-63
2022/08/21 09:16:56;;;;;;;2.20;1.50;;;24.70;52.60;;;;;;5074649;28;20047;-63
2022/08/21 09:19:37;;;;;;;2.20;1.40;;;24.80;52.70;;;;;;5082335;28;20081;-63
2022/08/21 09:22:38;;;;;;;2.78;1.27;;;24.70;52.70;;;;;;5081184;28;20043;-63
2022/08/21 09:25:30;;;;;;;2.50;1.38;;;24.70;52.70;;;;;;5082129;28;20114;-63
2022/08/21 09:27:56;;;;;;;1.75;1.40;;;24.70;52.70;;;;;;5081863;28;20024;-63
2022/08/21 09:30:27;;;;;;;1.65;1.10;;;24.80;52.80;;;;;;5082015;28;20329;-63
2022/08/21 09:32:53;;;;;;;1.63;1.30;;;24.70;52.80;;;;;;5081314;28;20035;-63
2022/08/21 09:35:21;;;;;;;1.48;1.20;;;24.70;52.80;;;;;;5082997;28;20020;-63
2022/08/21 09:37:52;;;;;;;1.50;1.20;;;24.70;52.80;;;;;;5079395;28;20016;-63
2022/08/21 09:40:35;;;;;;;1.48;1.20;;;24.70;52.80;;;;;;5081817;28;20514;-63
2022/08/21 09:43:14;;;;;;;1.40;1.20;;;24.70;52.70;;;;;;5082111;28;20032;-63
2022/08/21 09:45:41;;;;;;;1.38;1.20;;;24.80;52.80;;;;;;5077606;28;20067;-63
2022/08/21 09:48:10;;;;;;;1.90;1.20;;;24.70;52.70;;;;;;5082294;28;20097;-63
2022/08/21 09:50:36;;;;;;;1.60;1.20;;;24.70;52.80;;;;;;5081395;28;20028;-63
2022/08/21 09:53:03;;;;;;;1.50;1.33;;;24.80;52.80;;;;;;5080758;28;20042;-63
2022/08/21 09:58:36;;;;;;;1.83;1.35;;;24.80;52.70;;;;;;5081905;28;20047;-63
2022/08/21 10:01:04;;;;;;;1.90;1.30;;;24.80;52.70;;;;;;5081380;28;20036;-64
2022/08/21 10:03:30;;;;;;;1.80;1.40;;;24.80;52.80;;;;;;5081797;28;20028;-63
2022/08/21 10:06:09;;;;;;;1.63;1.30;;;24.80;52.70;;;;;;5082032;28;20029;-63
2022/08/21 10:08:36;;;;;;;;;;;24.80;52.70;;;;;;5080136;28;20103;-63
2022/08/21 10:11:09;;;;;;;2.45;1.50;;;24.80;52.70;;;;;;5080539;28;19905;-63
2022/08/21 10:13:49;;;;;;;2.10;1.50;;;24.80;52.80;;;;;;5079820;28;20043;-63
2022/08/21 10:16:22;;;;;;;2.92;1.50;;;24.80;52.90;;;;;;5081414;28;20367;-63
2022/08/21 10:19:31;;;;;;;2.85;1.60;;;24.80;53.10;;;;;;5082336;28;20028;-63
2022/08/21 10:22:29;;;;;;;2.33;1.55;;;24.80;53.40;;;;;;5081834;28;20176;-63
2022/08/21 10:25:17;;;;;;;2.92;1.73;;;24.80;53.50;;;;;;5080054;28;20036;-63
2022/08/21 10:28:06;;;;;;;2.78;1.60;;;24.80;53.60;;;;;;5081613;28;20055;-63
2022/08/21 10:30:58;;;;;;;2.10;1.50;;;24.80;53.80;;;;;;5079052;28;20052;-63
2022/08/21 10:33:24;;;;;;;2.30;1.67;;;24.80;54.10;;;;;;5080933;28;20032;-63
2022/08/21 10:35:58;;;;;;;2.53;1.60;;;24.80;53.90;;;;;;5080412;28;20040;-63
2022/08/21 10:38:46;;;;;;;3.85;1.70;;;24.80;53.90;;;;;;5081236;28;20491;-63
2022/08/21 10:41:31;;;;;;;2.40;1.63;;;24.80;53.90;;;;;;5079591;28;20039;-63
2022/08/21 10:44:23;;;;;;;2.60;1.50;;;24.80;53.80;;;;;;5078097;28;20025;-63
2022/08/21 10:47:04;;;;;;;4.18;1.77;;;24.80;53.80;;;;;;5078770;28;20039;-63
2022/08/21 10:49:38;;;;;;;3.65;1.67;;;24.80;53.80;;;;;;5080583;28;20082;-63
2022/08/21 10:52:10;;;;;;;2.78;1.50;;;24.80;53.90;;;;;;5080466;28;20044;-63
2022/08/21 10:54:52;;;;;;;3.00;1.70;;;24.80;53.80;;;;;;5078950;28;20338;-63
2022/08/21 10:57:41;;;;;;;2.22;1.60;;;24.80;53.80;;;;;;5079087;28;20032;-64
2022/08/21 11:00:13;;;;;;;2.38;1.48;;;24.90;53.80;;;;;;5071431;28;20407;-63
2022/08/21 11:02:46;;;;;;;2.55;1.60;;;24.90;53.80;;;;;;5079008;28;20546;-63
2022/08/21 11:05:15;;;;;;;3.15;1.45;;;24.90;53.80;;;;;;5078334;28;20036;-63
2022/08/21 11:07:46;;;;;;;2.60;1.60;;;24.90;53.80;;;;;;5080601;28;20028;-63
2022/08/21 11:10:15;;;;;;;2.38;1.58;;;24.90;53.80;;;;;;5080083;28;20577;-63
2022/08/21 11:12:42;;;;;;;2.40;1.52;;;24.90;53.90;;;;;;5080499;28;20051;-63
2022/08/21 11:15:34;;;;;;;5.55;2.08;;;24.90;54.30;;;;;;5079942;28;20028;-63
2022/08/21 11:18:29;;;;;;;2.35;1.60;;;24.90;53.90;;;;;;5079380;28;20024;-63
2022/08/21 11:21:27;;;;;;;2.42;1.65;;;24.90;53.70;;;;;;5078832;28;20422;-63
2022/08/21 11:24:17;;;;;;;2.17;1.40;;;24.90;53.80;;;;;;5078089;28;20024;-63
2022/08/21 11:27:11;;;;;;;2.83;1.70;;;24.90;53.80;;;;;;5049847;28;20060;-63
2022/08/21 11:29:39;;;;;;;2.60;1.65;;;24.90;53.80;;;;;;5080827;28;20499;-64
2022/08/21 11:32:20;;;;;;;2.60;1.57;;;24.90;53.80;;;;;;5080701;28;20055;-63
2022/08/21 11:34:51;;;;;;;2.30;1.63;;;24.90;53.80;;;;;;5078964;28;20032;-63
2022/08/21 11:37:41;;;;;;;3.03;1.60;;;24.90;53.90;;;;;;5076259;28;20099;-63
2022/08/21 11:40:26;;;;;;;2.30;1.42;;;24.90;53.70;;;;;;5079837;28;20468;-63
2022/08/21 11:43:28;;;;;;;2.13;1.40;;;24.90;53.70;;;;;;5078209;28;20036;-64
2022/08/21 11:45:59;;;;;;;2.00;1.50;;;24.90;53.70;;;;;;5079794;28;20417;-64
2022/08/21 11:48:34;;;;;;;2.33;1.50;;;25.00;53.70;;;;;;5078359;28;20465;-63
2022/08/21 11:51:07;;;;;;;3.28;1.45;;;25.00;53.70;;;;;;5078946;28;20498;-63
2022/08/21 11:53:37;;;;;;;2.30;1.58;;;25.00;53.70;;;;;;5080833;28;20490;-63
2022/08/21 11:56:38;;;;;;;2.33;1.60;;;25.00;53.60;;;;;;5078735;28;20484;-63
2022/08/21 11:59:26;;;;;;;2.38;1.48;;;25.00;53.70;;;;;;5079517;28;20514;-63
2022/08/21 12:01:53;;;;;;;2.27;1.50;;;25.00;53.70;;;;;;5078638;28;20116;-63
2022/08/21 12:04:29;;;;;;;2.17;1.52;;;25.00;53.60;;;;;;5078394;28;20037;-64
2022/08/21 12:06:55;;;;;;;2.42;1.50;;;25.00;53.90;;;;;;5083057;28;20513;-63
2022/08/21 12:09:24;;;;;;;2.30;1.40;;;25.00;53.70;;;;;;5084480;28;20020;-63
2022/08/21 12:12:22;;;;;;;2.65;1.83;;;25.00;53.70;;;;;;5081496;28;20475;-63
2022/08/21 12:14:51;;;;;;;2.42;1.60;;;25.00;53.60;;;;;;5083272;28;20031;-63
2022/08/21 12:17:20;;;;;;;1.98;1.40;;;25.00;53.60;;;;;;5083318;28;20523;-63
2022/08/21 12:20:00;;;;;;;2.35;1.50;;;25.00;53.60;;;;;;5081442;28;20094;-64
2022/08/21 12:22:38;;;;;;;2.83;1.70;;;25.00;53.60;;;;;;5082804;28;20495;-64
2022/08/21 12:25:09;;;;;;;2.45;1.52;;;25.00;53.60;;;;;;5085206;28;20399;-64
2022/08/21 12:27:52;;;;;;;2.13;1.48;;;25.00;53.50;;;;;;5083611;28;20028;-64
2022/08/21 12:30:26;;;;;;;2.30;1.50;;;25.00;53.50;;;;;;5080382;28;20038;-64
2022/08/21 12:33:02;;;;;;;2.20;1.58;;;25.10;53.70;;;;;;5081327;28;20044;-64
2022/08/21 12:35:35;;;;;;;1.73;1.40;;;25.10;53.70;;;;;;5083046;28;20145;-64
2022/08/21 12:38:19;;;;;;;1.83;1.40;;;25.10;53.60;;;;;;5083958;28;20115;-64
2022/08/21 12:41:00;;;;;;;2.35;1.38;;;25.10;53.60;;;;;;5084305;28;20024;-64
2022/08/21 12:43:28;;;;;;;1.67;1.30;;;25.10;53.50;;;;;;5083399;28;20062;-64
2022/08/21 12:45:54;;;;;;;1.60;1.30;;;25.10;53.60;;;;;;5081920;28;20031;-64
2022/08/21 12:48:28;;;;;;;1.95;1.40;;;25.10;53.50;;;;;;5081597;28;20539;-64
2022/08/21 12:51:15;;;;;;;1.77;1.38;;;25.10;53.50;;;;;;5080221;28;20383;-64
2022/08/21 12:53:48;;;;;;;2.50;1.40;;;25.10;53.50;;;;;;5081061;28;20521;-64
2022/08/21 12:56:17;;;;;;;1.83;1.38;;;25.10;53.50;;;;;;5081676;28;20028;-64
2022/08/21 12:58:51;;;;;;;1.80;1.30;;;25.10;53.50;;;;;;5081804;28;20478;-64
2022/08/21 13:01:27;;;;;;;2.08;1.20;;;25.10;53.50;;;;;;5081704;28;20070;-64
2022/08/21 13:03:57;;;;;;;2.03;1.30;;;25.10;53.40;;;;;;5081162;28;20365;-64
2022/08/21 13:06:26;;;;;;;2.25;1.50;;;25.10;53.50;;;;;;5080766;28;20337;-64